createdAt,value
2019-03-25T00:01:22.763Z,8.10
2019-03-25T00:03:52.262Z,8.10
2019-03-25T00:06:21.699Z,8.10
2019-03-25T00:09:04.610Z,8.10
2019-03-25T00:11:24.529Z,8.00
2019-03-25T00:13:55.727Z,8.10
2019-03-25T00:16:26.986Z,8.10
2019-03-25T00:18:57.434Z,8.10
2019-03-25T00:21:28.412Z,8.10
2019-03-25T00:23:59.984Z,8.10
2019-03-25T00:26:30.935Z,8.20
2019-03-25T00:29:01.564Z,8.10
2019-03-25T00:31:32.840Z,8.10
2019-03-25T00:34:03.917Z,8.10
2019-03-25T00:36:35.199Z,8.10
2019-03-25T00:39:08.253Z,7.90
2019-03-25T00:41:40.130Z,7.90
2019-03-25T00:44:10.984Z,8.00
2019-03-25T00:46:43.335Z,8.10
2019-03-25T00:49:17.665Z,8.10
2019-03-25T00:51:49.498Z,8.10
2019-03-25T00:54:20.119Z,8.20
2019-03-25T00:56:50.880Z,8.30
2019-03-25T00:59:21.530Z,8.40
2019-03-25T01:01:52.509Z,8.30
2019-03-25T01:04:23.672Z,8.30
2019-03-25T01:06:54.369Z,8.20
2019-03-25T01:09:25.123Z,8.30
2019-03-25T01:11:55.900Z,8.30
2019-03-25T01:14:26.597Z,8.40
2019-03-25T01:16:57.360Z,8.20
2019-03-25T01:19:28.256Z,8.20
2019-03-25T01:21:59.597Z,8.10
2019-03-25T01:24:30.899Z,8.20
2019-03-25T01:27:02.590Z,8.20
2019-03-25T01:29:33.329Z,8.30
2019-03-25T01:32:04.080Z,8.30
2019-03-25T01:34:35.717Z,8.40
2019-03-25T01:37:06.927Z,8.40
2019-03-25T01:39:38.267Z,8.40
2019-03-25T01:42:11.418Z,8.40
2019-03-25T01:44:41.822Z,8.40
2019-03-25T01:47:12.505Z,8.50
2019-03-25T01:49:43.214Z,8.50
2019-03-25T01:52:13.767Z,8.40
2019-03-25T01:54:44.415Z,8.30
2019-03-25T01:57:15.068Z,8.30
2019-03-25T01:59:45.683Z,8.30
2019-03-25T02:02:16.165Z,8.30
2019-03-25T02:04:46.575Z,8.20
2019-03-25T02:07:17.234Z,8.10
2019-03-25T02:09:47.522Z,8.10
2019-03-25T02:12:17.610Z,8.10
2019-03-25T02:14:47.923Z,8.10
2019-03-25T02:17:17.729Z,8.10
2019-03-25T02:19:48.124Z,8.10
2019-03-25T02:22:18.839Z,8.10
2019-03-25T02:24:49.244Z,8.10
2019-03-25T02:27:20.197Z,8.10
2019-03-25T02:29:51.416Z,8.10
2019-03-25T02:32:22.027Z,8.10
2019-03-25T02:34:52.694Z,8.20
2019-03-25T02:37:23.382Z,8.20
2019-03-25T02:39:53.562Z,8.10
2019-03-25T02:42:24.303Z,8.10
2019-03-25T02:44:55.024Z,8.20
2019-03-25T02:47:25.976Z,8.10
2019-03-25T02:50:02.489Z,8.00
2019-03-25T02:52:32.469Z,8.00
2019-03-25T02:55:02.678Z,8.00
2019-03-25T02:57:32.647Z,8.10
2019-03-25T03:00:02.477Z,8.00
2019-03-25T03:02:33.273Z,8.00
2019-03-25T03:05:03.065Z,8.00
2019-03-25T03:10:53.933Z,8.10
2019-03-25T03:13:28.146Z,8.20
2019-03-25T03:14:21.096Z,8.10
2019-03-25T03:15:57.536Z,8.20
2019-03-25T03:21:30.687Z,8.10
2019-03-25T03:24:00.543Z,8.10
2019-03-25T03:26:30.257Z,8.00
2019-03-25T03:29:03.938Z,8.10
2019-03-25T03:31:33.093Z,8.10
2019-03-25T03:34:02.528Z,8.10
2019-03-25T03:36:31.978Z,8.10
2019-03-25T03:39:01.335Z,8.00
2019-03-25T03:41:30.898Z,8.00
2019-03-25T03:44:00.812Z,8.00
2019-03-25T03:46:30.413Z,8.00
2019-03-25T03:48:59.715Z,8.00
2019-03-25T03:51:29.414Z,7.90
2019-03-25T03:53:59.252Z,7.80
2019-03-25T03:56:29.651Z,7.80
2019-03-25T03:59:01.615Z,7.80
2019-03-25T04:01:30.949Z,7.70
2019-03-25T04:04:00.284Z,7.60
2019-03-25T04:06:29.648Z,7.50
2019-03-25T04:08:59.062Z,7.50
2019-03-25T04:11:28.735Z,7.40
2019-03-25T04:13:58.135Z,7.40
2019-03-25T04:16:27.478Z,7.30
2019-03-25T04:18:56.866Z,7.40
2019-03-25T04:21:26.216Z,7.40
2019-03-25T04:23:55.762Z,7.30
2019-03-25T04:26:29.176Z,7.30
2019-03-25T04:28:57.011Z,7.20
2019-03-25T04:31:26.631Z,7.10
2019-03-25T04:33:57.043Z,7.00
2019-03-25T04:36:26.747Z,6.90
2019-03-25T04:38:56.340Z,6.80
2019-03-25T04:41:25.711Z,6.80
2019-03-25T04:43:55.104Z,6.60
2019-03-25T04:46:24.423Z,6.50
2019-03-25T04:48:53.882Z,6.50
2019-03-25T04:51:23.310Z,6.40
2019-03-25T04:53:52.645Z,6.30
2019-03-25T04:56:22.054Z,6.20
2019-03-25T04:58:51.382Z,6.20
2019-03-25T05:01:20.795Z,6.20
2019-03-25T05:03:50.122Z,6.30
2019-03-25T05:06:19.587Z,6.40
2019-03-25T05:08:49.008Z,6.40
2019-03-25T05:11:29.944Z,6.30
2019-03-25T05:13:49.498Z,6.20
2019-03-25T05:16:18.844Z,6.00
2019-03-25T05:18:48.202Z,5.90
2019-03-25T05:21:17.550Z,5.80
2019-03-25T05:23:46.854Z,5.70
2019-03-25T05:26:16.222Z,5.70
2019-03-25T05:28:45.551Z,5.50
2019-03-25T05:31:15.038Z,5.50
2019-03-25T05:33:45.039Z,5.40
2019-03-25T05:36:15.053Z,5.30
2019-03-25T05:38:44.726Z,5.30
2019-03-25T05:41:15.280Z,5.30
2019-03-25T05:43:45.171Z,5.30
2019-03-25T05:46:14.948Z,5.20
2019-03-25T05:48:44.860Z,5.20
2019-03-25T05:51:14.991Z,5.20
2019-03-25T05:53:45.364Z,5.20
2019-03-25T05:56:15.396Z,5.20
2019-03-25T05:58:46.662Z,5.20
2019-03-25T06:01:17.783Z,5.30
2019-03-25T06:03:49.224Z,5.30
2019-03-25T06:06:18.771Z,5.30
2019-03-25T06:08:48.146Z,5.30
2019-03-25T06:11:17.450Z,5.30
2019-03-25T06:13:46.736Z,5.40
2019-03-25T06:16:16.099Z,5.40
2019-03-25T06:18:45.759Z,5.40
2019-03-25T06:21:15.159Z,5.40
2019-03-25T06:23:44.782Z,5.40
2019-03-25T06:26:14.170Z,5.40
2019-03-25T06:28:43.513Z,5.40
2019-03-25T06:31:12.943Z,5.50
2019-03-25T06:33:42.348Z,5.50
2019-03-25T06:36:11.635Z,5.50
2019-03-25T06:38:40.976Z,5.50
2019-03-25T06:41:10.314Z,5.40
2019-03-25T06:43:39.707Z,5.50
2019-03-25T06:46:09.091Z,5.60
2019-03-25T06:48:38.498Z,5.60
2019-03-25T06:51:07.813Z,5.70
2019-03-25T06:53:37.142Z,5.70
2019-03-25T06:56:06.594Z,5.80
2019-03-25T06:58:35.936Z,5.90
2019-03-25T07:01:05.426Z,5.90
2019-03-25T07:03:34.771Z,6.00
2019-03-25T07:06:04.087Z,5.90
2019-03-25T07:08:33.378Z,6.00
2019-03-25T07:11:03.395Z,6.20
2019-03-25T07:13:32.956Z,6.40
2019-03-25T07:16:02.246Z,6.40
2019-03-25T07:18:31.555Z,6.40
2019-03-25T07:21:00.926Z,6.40
2019-03-25T07:23:30.258Z,6.50
2019-03-25T07:25:59.610Z,6.60
2019-03-25T07:28:28.966Z,6.70
2019-03-25T07:30:58.369Z,6.90
2019-03-25T07:33:27.671Z,7.10
2019-03-25T07:35:57.005Z,7.20
2019-03-25T07:38:26.302Z,7.50
2019-03-25T07:40:55.611Z,7.60
2019-03-25T07:43:25.246Z,7.70
2019-03-25T07:45:54.953Z,7.80
2019-03-25T07:48:24.283Z,7.80
2019-03-25T07:50:53.587Z,8.00
2019-03-25T07:53:22.980Z,8.00
2019-03-25T07:55:52.298Z,8.20
2019-03-25T07:58:21.598Z,8.10
2019-03-25T08:00:50.913Z,8.10
2019-03-25T08:03:20.201Z,8.10
2019-03-25T08:05:49.584Z,8.30
2019-03-25T08:08:18.906Z,8.70
2019-03-25T08:10:48.273Z,8.90
2019-03-25T08:13:18.007Z,8.80
2019-03-25T08:15:47.493Z,8.70
2019-03-25T08:18:16.847Z,9.00
2019-03-25T08:20:46.166Z,9.40
2019-03-25T08:23:15.461Z,9.40
2019-03-25T08:25:44.846Z,9.30
2019-03-25T08:28:14.142Z,9.10
2019-03-25T08:30:43.431Z,9.30
2019-03-25T08:33:12.834Z,9.70
2019-03-25T08:35:42.269Z,9.90
2019-03-25T08:38:11.570Z,9.90
2019-03-25T08:40:40.944Z,10.30
2019-03-25T08:43:10.326Z,10.70
2019-03-25T08:45:39.802Z,11.20
2019-03-25T08:48:09.234Z,10.80
2019-03-25T08:50:38.582Z,10.30
2019-03-25T08:53:07.965Z,10.20
2019-03-25T08:55:37.394Z,10.20
2019-03-25T08:58:11.917Z,10.20
2019-03-25T09:00:38.019Z,10.60
2019-03-25T09:03:07.372Z,11.10
2019-03-25T09:05:36.800Z,11.20
2019-03-25T09:08:06.243Z,11.30
2019-03-25T09:10:35.641Z,11.10
2019-03-25T09:13:05.018Z,10.90
2019-03-25T09:15:34.438Z,10.80
2019-03-25T09:18:04.006Z,10.70
2019-03-25T09:20:33.302Z,10.70
2019-03-25T09:23:02.626Z,10.80
2019-03-25T09:25:31.926Z,11.10
2019-03-25T09:28:01.390Z,11.00
2019-03-25T09:31:16.785Z,11.00
2019-03-25T09:33:47.002Z,11.00
2019-03-25T09:36:18.039Z,10.70
2019-03-25T09:38:47.626Z,10.50
2019-03-25T09:41:17.110Z,10.30
2019-03-25T09:43:46.575Z,10.40
2019-03-25T09:46:16.086Z,10.40
2019-03-25T09:48:45.600Z,10.10
2019-03-25T09:51:15.067Z,9.90
2019-03-25T09:53:44.542Z,9.70
2019-03-25T09:56:14.755Z,9.50
2019-03-25T09:58:44.150Z,9.20
2019-03-25T10:01:13.539Z,9.30
2019-03-25T10:03:42.915Z,9.20
2019-03-25T10:06:12.394Z,9.10
2019-03-25T10:08:42.048Z,9.10
2019-03-25T10:11:11.536Z,9.20
2019-03-25T10:13:41.017Z,9.30
2019-03-25T10:16:10.309Z,9.40
2019-03-25T10:18:39.622Z,9.60
2019-03-25T10:21:09.045Z,9.60
2019-03-25T10:23:38.423Z,9.90
2019-03-25T10:26:07.967Z,10.30
2019-03-25T10:28:47.806Z,10.50
2019-03-25T10:31:08.435Z,10.20
2019-03-25T10:33:37.761Z,10.10
2019-03-25T10:36:07.214Z,10.30
2019-03-25T10:38:36.798Z,10.00
2019-03-25T10:41:06.099Z,9.60
2019-03-25T10:43:35.412Z,9.60
2019-03-25T10:46:04.707Z,9.60
2019-03-25T10:48:34.054Z,9.70
2019-03-25T10:51:03.506Z,9.60
2019-03-25T10:53:32.811Z,9.50
2019-03-25T10:56:02.204Z,9.30
2019-03-25T10:58:31.494Z,9.10
2019-03-25T11:01:00.990Z,9.30
2019-03-25T11:03:30.326Z,10.10
2019-03-25T11:05:59.969Z,10.40
2019-03-25T11:08:29.411Z,10.50
2019-03-25T11:10:58.808Z,10.50
2019-03-25T11:13:28.206Z,10.20
2019-03-25T11:15:57.707Z,10.30
2019-03-25T11:18:27.390Z,10.60
2019-03-25T11:20:56.831Z,11.20
2019-03-25T11:23:26.170Z,11.50
2019-03-25T11:25:55.521Z,12.20
2019-03-25T11:28:24.933Z,12.60
2019-03-25T11:30:56.346Z,12.10
2019-03-25T11:33:25.858Z,11.60
2019-03-25T11:35:55.338Z,10.90
2019-03-25T11:38:24.830Z,10.60
2019-03-25T11:40:54.206Z,10.80
2019-03-25T11:43:23.662Z,10.60
2019-03-25T11:45:53.423Z,10.20
2019-03-25T11:48:22.883Z,9.70
2019-03-25T11:50:52.418Z,8.30
2019-03-25T11:53:21.884Z,7.80
2019-03-25T11:55:51.402Z,8.00
2019-03-25T11:58:20.890Z,9.10
2019-03-25T12:00:50.257Z,9.90
2019-03-25T12:03:19.677Z,10.90
2019-03-25T12:05:49.142Z,11.10
2019-03-25T12:08:18.451Z,11.50
2019-03-25T12:10:47.928Z,11.40
2019-03-25T12:13:17.314Z,10.40
2019-03-25T12:15:46.646Z,9.30
2019-03-25T12:18:15.945Z,8.40
2019-03-25T12:20:45.426Z,7.80
2019-03-25T12:23:14.843Z,7.30
2019-03-25T12:25:44.146Z,6.70
2019-03-25T12:28:13.548Z,6.20
2019-03-25T12:30:42.942Z,6.10
2019-03-25T12:33:12.723Z,6.10
2019-03-25T12:35:42.076Z,6.20
2019-03-25T12:38:11.542Z,6.50
2019-03-25T12:40:40.889Z,6.80
2019-03-25T12:43:10.376Z,7.50
2019-03-25T12:45:40.108Z,8.20
2019-03-25T12:48:09.617Z,9.20
2019-03-25T12:50:38.909Z,9.30
2019-03-25T12:53:08.350Z,9.60
2019-03-25T12:55:37.822Z,10.00
2019-03-25T12:58:07.701Z,10.40
2019-03-25T13:00:39.146Z,10.20
2019-03-25T13:03:08.718Z,9.70
2019-03-25T13:05:38.236Z,9.30
2019-03-25T13:08:07.942Z,8.90
2019-03-25T13:10:37.330Z,8.70
2019-03-25T13:13:06.807Z,8.50
2019-03-25T13:15:36.127Z,8.50
2019-03-25T13:18:05.649Z,9.40
2019-03-25T13:20:35.002Z,10.90
2019-03-25T13:23:04.586Z,12.50
2019-03-25T13:25:33.934Z,14.00
2019-03-25T13:28:03.638Z,14.70
2019-03-25T13:30:33.110Z,15.10
2019-03-25T13:33:02.452Z,15.40
2019-03-25T13:35:31.900Z,15.60
2019-03-25T13:38:01.751Z,15.80
2019-03-25T13:40:31.047Z,15.60
2019-03-25T13:43:00.357Z,15.60
2019-03-25T13:45:29.775Z,16.10
2019-03-25T13:47:59.173Z,15.80
2019-03-25T13:50:29.199Z,15.30
2019-03-25T13:52:58.500Z,13.80
2019-03-25T13:55:27.882Z,12.20
2019-03-25T13:57:57.549Z,11.10
2019-03-25T14:00:39.789Z,10.80
2019-03-25T14:03:09.171Z,10.50
2019-03-25T14:05:38.674Z,9.90
2019-03-25T14:08:08.442Z,9.50
2019-03-25T14:10:38.046Z,10.10
2019-03-25T14:13:07.456Z,12.20
2019-03-25T14:15:37.191Z,14.50
2019-03-25T14:18:06.668Z,16.40
2019-03-25T14:20:36.164Z,17.50
2019-03-25T14:23:05.688Z,17.60
2019-03-25T14:25:35.019Z,16.10
2019-03-25T14:28:04.461Z,14.40
2019-03-25T14:30:33.806Z,13.00
2019-03-25T14:33:03.189Z,12.90
2019-03-25T14:35:32.495Z,12.30
2019-03-25T14:38:01.914Z,11.50
2019-03-25T14:40:31.298Z,10.40
2019-03-25T14:43:00.589Z,8.50
2019-03-25T14:45:29.985Z,7.20
2019-03-25T14:47:59.498Z,6.10
2019-03-25T14:50:28.926Z,5.00
2019-03-25T14:52:58.305Z,4.70
2019-03-25T14:55:27.728Z,4.50
2019-03-25T14:57:57.190Z,4.50
2019-03-25T15:00:26.547Z,4.40
2019-03-25T15:02:55.951Z,4.30
2019-03-25T15:05:25.773Z,4.30
2019-03-25T15:07:55.123Z,4.40
2019-03-25T15:10:24.453Z,4.30
2019-03-25T15:12:53.828Z,4.40
2019-03-25T15:15:23.336Z,4.50
2019-03-25T15:17:52.630Z,4.70
2019-03-25T15:20:22.053Z,5.00
2019-03-25T15:22:51.417Z,5.20
2019-03-25T15:25:20.788Z,5.30
2019-03-25T15:27:50.118Z,5.40
2019-03-25T15:30:20.148Z,5.80
2019-03-25T15:32:49.494Z,6.20
2019-03-25T15:35:18.786Z,6.30
2019-03-25T15:37:48.486Z,6.20
2019-03-25T15:40:18.056Z,6.10
2019-03-25T15:42:47.460Z,6.00
2019-03-25T15:45:16.910Z,6.00
2019-03-25T15:47:47.333Z,5.90
2019-03-25T15:50:17.211Z,5.90
2019-03-25T15:52:46.630Z,6.00
2019-03-25T15:55:16.125Z,6.40
2019-03-25T15:57:45.635Z,7.20
2019-03-25T16:00:17.849Z,7.90
2019-03-25T16:02:47.229Z,8.70
2019-03-25T16:05:16.917Z,9.40
2019-03-25T16:07:46.413Z,10.00
2019-03-25T16:10:17.271Z,10.40
2019-03-25T16:12:47.266Z,10.70
2019-03-25T16:15:38.890Z,10.90
2019-03-25T16:18:09.602Z,10.80
2019-03-25T16:20:38.918Z,10.30
2019-03-25T16:23:08.354Z,10.60
2019-03-25T16:25:37.742Z,11.00
2019-03-25T16:28:07.178Z,11.00
2019-03-25T16:30:36.556Z,11.20
2019-03-25T16:33:06.034Z,11.30
2019-03-25T16:35:35.367Z,11.20
2019-03-25T16:38:04.902Z,11.00
2019-03-25T16:40:34.333Z,10.50
2019-03-25T16:43:03.811Z,9.50
2019-03-25T16:45:33.188Z,8.40
2019-03-25T16:48:02.550Z,7.80
2019-03-25T16:50:31.859Z,7.20
2019-03-25T16:53:01.482Z,6.80
2019-03-25T16:55:30.946Z,6.60
2019-03-25T16:58:00.262Z,6.40
2019-03-25T17:00:29.782Z,6.30
2019-03-25T17:02:59.274Z,6.10
2019-03-25T17:05:28.678Z,5.40
2019-03-25T17:07:58.049Z,4.70
2019-03-25T17:10:27.440Z,4.40
2019-03-25T17:12:56.817Z,4.20
2019-03-25T17:15:26.199Z,4.20
2019-03-25T17:17:55.643Z,4.20
2019-03-25T17:20:25.154Z,4.20
2019-03-25T17:22:54.877Z,4.10
2019-03-25T17:25:24.346Z,4.00
2019-03-25T17:27:53.851Z,4.00
2019-03-25T17:30:23.459Z,4.00
2019-03-25T17:32:52.769Z,4.00
2019-03-25T17:35:22.143Z,4.00
2019-03-25T17:37:51.549Z,4.00
2019-03-25T17:40:21.348Z,4.00
2019-03-25T17:42:50.871Z,4.00
2019-03-25T17:45:20.606Z,4.10
2019-03-25T17:47:50.185Z,4.20
2019-03-25T17:50:19.707Z,4.20
2019-03-25T17:52:49.143Z,4.30
2019-03-25T17:55:18.849Z,4.30
2019-03-25T17:57:48.434Z,4.20
2019-03-25T18:00:35.828Z,4.20
2019-03-25T18:03:11.062Z,4.20
2019-03-25T18:05:36.914Z,4.10
2019-03-25T18:08:06.479Z,4.10
2019-03-25T18:10:35.874Z,4.10
2019-03-25T18:13:05.535Z,4.00
2019-03-25T18:15:35.091Z,4.00
2019-03-25T18:18:04.607Z,3.90
2019-03-25T18:20:35.043Z,3.90
2019-03-25T18:23:04.507Z,3.90
2019-03-25T18:25:34.175Z,3.80
2019-03-25T18:28:03.547Z,3.70
2019-03-25T18:30:33.522Z,3.70
2019-03-25T18:33:18.655Z,3.60
2019-03-25T18:35:55.364Z,3.50
2019-03-25T18:38:24.034Z,3.40
2019-03-25T18:40:53.457Z,3.40
2019-03-25T18:43:36.439Z,3.20
2019-03-25T18:46:06.307Z,3.20
2019-03-25T18:48:35.852Z,3.00
2019-03-25T18:51:05.259Z,3.00
2019-03-25T18:53:34.894Z,3.00
2019-03-25T18:56:04.920Z,2.90
2019-03-25T18:58:34.418Z,2.80
2019-03-25T19:01:04.037Z,2.80
2019-03-25T19:03:33.822Z,2.70
2019-03-25T19:06:03.754Z,2.60
2019-03-25T19:08:34.034Z,2.60
2019-03-25T19:11:03.622Z,2.60
2019-03-25T19:13:33.399Z,2.60
2019-03-25T19:16:03.023Z,2.60
2019-03-25T19:18:32.583Z,2.60
2019-03-25T19:21:02.395Z,2.60
2019-03-25T19:23:32.127Z,2.60
2019-03-25T19:26:02.429Z,2.50
2019-03-25T19:28:32.026Z,2.50
2019-03-25T19:31:02.081Z,2.40
2019-03-25T19:33:34.676Z,2.40
2019-03-25T19:36:06.743Z,2.40
2019-03-25T19:38:37.718Z,2.40
2019-03-25T19:41:07.260Z,2.40
2019-03-25T19:43:36.719Z,2.30
2019-03-25T19:46:06.176Z,2.30
2019-03-25T19:48:35.772Z,2.30
2019-03-25T19:51:05.401Z,2.30
2019-03-25T19:53:35.195Z,2.40
2019-03-25T19:56:04.952Z,2.50
2019-03-25T19:58:34.335Z,2.60
2019-03-25T20:01:04.787Z,2.70
2019-03-25T20:03:34.343Z,2.80
2019-03-25T20:06:03.781Z,2.80
2019-03-25T20:08:33.392Z,2.90
2019-03-25T20:11:02.856Z,2.90
2019-03-25T20:13:32.483Z,2.90
2019-03-25T20:16:10.726Z,2.90
2019-03-25T20:19:06.047Z,3.00
2019-03-25T20:21:42.726Z,3.00
2019-03-25T20:24:13.963Z,3.00
2019-03-25T20:26:59.473Z,2.90
2019-03-25T20:29:29.076Z,2.90
2019-03-25T20:31:58.619Z,2.80
2019-03-25T20:34:28.171Z,2.80
2019-03-25T20:36:57.684Z,2.60
2019-03-25T20:39:27.053Z,2.50
2019-03-25T20:41:56.598Z,2.50
2019-03-25T20:44:25.963Z,2.60
2019-03-25T20:46:55.393Z,2.70
2019-03-25T20:49:24.806Z,2.80
2019-03-25T20:51:54.332Z,2.80
2019-03-25T20:54:23.773Z,2.80
2019-03-25T20:56:53.166Z,2.80
2019-03-25T20:59:22.598Z,2.80
2019-03-25T21:01:52.047Z,2.80
2019-03-25T21:04:21.572Z,2.80
2019-03-25T21:06:50.931Z,2.80
2019-03-25T21:09:20.401Z,2.80
2019-03-25T21:11:50.024Z,2.70
2019-03-25T21:14:19.487Z,2.70
2019-03-25T21:16:48.946Z,2.70
2019-03-25T21:19:18.828Z,2.70
2019-03-25T21:21:48.303Z,2.70
2019-03-25T21:24:17.762Z,2.60
2019-03-25T21:27:07.462Z,2.50
2019-03-25T21:29:47.312Z,2.50
2019-03-25T21:40:51.062Z,2.10
2019-03-25T21:43:48.674Z,2.00
2019-03-25T21:46:18.150Z,1.90
2019-03-25T21:48:47.627Z,1.90
2019-03-25T21:51:17.045Z,1.90
2019-03-25T21:53:46.429Z,1.90
2019-03-25T21:56:16.135Z,1.90
2019-03-25T21:58:45.780Z,1.90
2019-03-25T22:01:15.407Z,1.90
2019-03-25T22:03:44.796Z,2.00
2019-03-25T22:06:14.263Z,2.00
2019-03-25T22:08:44.626Z,2.00
2019-03-25T22:11:14.279Z,2.00
2019-03-25T22:13:43.682Z,1.90
2019-03-25T22:16:13.066Z,1.90
2019-03-25T22:18:42.454Z,1.90
2019-03-25T22:21:11.847Z,1.90
2019-03-25T22:23:41.180Z,1.90
2019-03-25T22:26:10.899Z,1.80
2019-03-25T22:28:40.282Z,1.90
2019-03-25T22:31:09.671Z,1.90
2019-03-25T22:33:39.020Z,2.00
2019-03-25T22:36:08.338Z,2.00
2019-03-25T22:38:37.772Z,2.00
2019-03-25T22:41:07.095Z,1.90
2019-03-25T22:43:36.426Z,1.90
2019-03-25T22:46:05.865Z,2.00
2019-03-25T22:48:35.286Z,2.10
2019-03-25T22:51:04.695Z,2.10
2019-03-25T22:53:34.150Z,2.10
2019-03-25T22:56:03.562Z,2.10
2019-03-25T22:58:32.918Z,2.10
2019-03-25T23:01:04.187Z,2.10
2019-03-25T23:03:39.571Z,2.00
2019-03-25T23:06:06.375Z,2.00
2019-03-25T23:08:36.773Z,2.00
2019-03-25T23:11:06.173Z,2.00
2019-03-25T23:13:35.786Z,2.20
2019-03-25T23:16:05.368Z,2.30
2019-03-25T23:18:35.781Z,2.40
2019-03-25T23:21:05.366Z,2.50
2019-03-25T23:23:34.670Z,2.60
2019-03-25T23:26:04.199Z,2.70
2019-03-25T23:28:33.681Z,2.80
2019-03-25T23:31:03.082Z,2.80
2019-03-25T23:33:32.534Z,2.80
2019-03-25T23:36:01.891Z,2.90
2019-03-25T23:38:31.247Z,2.80
2019-03-25T23:41:00.839Z,2.70
2019-03-25T23:43:30.279Z,2.70
2019-03-25T23:45:59.747Z,2.60
2019-03-25T23:48:29.088Z,2.50
2019-03-25T23:50:58.574Z,2.50
2019-03-25T23:53:28.006Z,2.40
2019-03-25T23:55:57.415Z,2.30
2019-03-25T23:58:26.774Z,2.20
